sensor_id;sensor_type;location;lat;lon;timestamp;P1;durP1;ratioP1;P2;durP2;ratioP2
9384;SDS011;4732;49.340;10.886;2023-08-08T03:10:34;1.42;;;1.30;;
9384;SDS011;4732;49.340;10.886;2023-08-08T03:12:59;1.95;;;1.23;;
9384;SDS011;4732;49.340;10.886;2023-08-08T03:15:25;2.20;;;1.40;;
9384;SDS011;4732;49.340;10.886;2023-08-08T03:17:50;1.88;;;1.45;;
9384;SDS011;4732;49.340;10.886;2023-08-08T03:20:16;1.42;;;1.13;;
9384;SDS011;4732;49.340;10.886;2023-08-08T03:22:41;3.67;;;1.45;;
9384;SDS011;4732;49.340;10.886;2023-08-08T03:25:07;2.42;;;1.40;;
9384;SDS011;4732;49.340;10.886;2023-08-08T03:27:33;3.13;;;1.20;;
9384;SDS011;4732;49.340;10.886;2023-08-08T03:29:58;2.92;;;1.70;;
9384;SDS011;4732;49.340;10.886;2023-08-08T03:32:24;2.67;;;1.50;;
9384;SDS011;4732;49.340;10.886;2023-08-08T03:34:49;3.15;;;1.60;;
9384;SDS011;4732;49.340;10.886;2023-08-08T03:37:15;1.30;;;1.20;;
9384;SDS011;4732;49.340;10.886;2023-08-08T03:39:41;2.17;;;1.73;;
9384;SDS011;4732;49.340;10.886;2023-08-08T03:42:06;1.77;;;1.38;;
9384;SDS011;4732;49.340;10.886;2023-08-08T03:44:32;2.38;;;1.60;;
9384;SDS011;4732;49.340;10.886;2023-08-08T03:46:57;1.83;;;1.20;;
9384;SDS011;4732;49.340;10.886;2023-08-08T03:49:23;2.60;;;1.42;;
9384;SDS011;4732;49.340;10.886;2023-08-08T03:51:49;1.30;;;1.20;;
9384;SDS011;4732;49.340;10.886;2023-08-08T03:54:16;2.72;;;1.52;;
9384;SDS011;4732;49.340;10.886;2023-08-08T03:56:43;3.95;;;1.23;;
9384;SDS011;4732;49.340;10.886;2023-08-08T03:59:08;1.40;;;1.30;;
9384;SDS011;4732;49.340;10.886;2023-08-08T04:01:34;1.88;;;1.48;;
9384;SDS011;4732;49.340;10.886;2023-08-08T04:04:00;2.72;;;1.90;;
9384;SDS011;4732;49.340;10.886;2023-08-08T04:06:26;1.48;;;1.30;;
9384;SDS011;4732;49.340;10.886;2023-08-08T04:08:52;1.45;;;1.20;;
9384;SDS011;4732;49.340;10.886;2023-08-08T04:11:17;4.65;;;1.48;;
9384;SDS011;4732;49.340;10.886;2023-08-08T04:13:43;1.70;;;1.60;;
9384;SDS011;4732;49.340;10.886;2023-08-08T04:16:08;1.50;;;1.30;;
9384;SDS011;4732;49.340;10.886;2023-08-08T04:18:34;1.80;;;1.20;;
9384;SDS011;4732;49.340;10.886;2023-08-08T04:20:59;2.08;;;1.40;;
9384;SDS011;4732;49.340;10.886;2023-08-08T04:23:25;4.13;;;1.83;;
9384;SDS011;4732;49.340;10.886;2023-08-08T04:25:54;2.05;;;1.38;;
9384;SDS011;4732;49.340;10.886;2023-08-08T04:28:19;2.45;;;1.45;;
9384;SDS011;4732;49.340;10.886;2023-08-08T04:30:45;1.95;;;1.35;;
9384;SDS011;4732;49.340;10.886;2023-08-08T04:33:11;1.67;;;1.30;;
9384;SDS011;4732;49.340;10.886;2023-08-08T04:35:36;2.15;;;1.42;;
9384;SDS011;4732;49.340;10.886;2023-08-08T04:38:02;1.90;;;1.55;;
9384;SDS011;4732;49.340;10.886;2023-08-08T04:40:28;2.55;;;1.50;;
9384;SDS011;4732;49.340;10.886;2023-08-08T04:42:53;3.60;;;1.83;;
9384;SDS011;4732;49.340;10.886;2023-08-08T04:45:19;2.47;;;1.83;;
9384;SDS011;4732;49.340;10.886;2023-08-08T04:47:46;2.10;;;1.55;;
9384;SDS011;4732;49.340;10.886;2023-08-08T04:50:12;1.50;;;1.40;;
9384;SDS011;4732;49.340;10.886;2023-08-08T04:52:37;2.42;;;1.67;;
9384;SDS011;4732;49.340;10.886;2023-08-08T04:55:04;1.75;;;1.65;;
9384;SDS011;4732;49.340;10.886;2023-08-08T04:57:31;1.75;;;1.63;;
9384;SDS011;4732;49.340;10.886;2023-08-08T04:59:56;3.08;;;1.63;;
9384;SDS011;4732;49.340;10.886;2023-08-08T05:02:22;2.63;;;1.48;;
9384;SDS011;4732;49.340;10.886;2023-08-08T05:04:48;2.05;;;1.65;;
9384;SDS011;4732;49.340;10.886;2023-08-08T05:07:15;1.60;;;1.50;;
9384;SDS011;4732;49.340;10.886;2023-08-08T05:09:40;5.10;;;2.10;;
9384;SDS011;4732;49.340;10.886;2023-08-08T05:12:06;1.67;;;1.55;;
9384;SDS011;4732;49.340;10.886;2023-08-08T05:14:35;2.15;;;1.75;;
9384;SDS011;4732;49.340;10.886;2023-08-08T09:26:31;1.20;;;0.70;;
9384;SDS011;4732;49.340;10.886;2023-08-08T09:28:57;1.63;;;0.90;;
9384;SDS011;4732;49.340;10.886;2023-08-08T09:33:59;2.13;;;0.82;;
9384;SDS011;4732;49.340;10.886;2023-08-08T09:36:26;2.80;;;1.00;;
9384;SDS011;4732;49.340;10.886;2023-08-08T09:41:27;1.88;;;0.70;;
9384;SDS011;4732;49.340;10.886;2023-08-08T09:44:07;1.38;;;1.00;;
9384;SDS011;4732;49.340;10.886;2023-08-08T09:46:33;1.58;;;1.08;;
9384;SDS011;4732;49.340;10.886;2023-08-08T09:49:00;2.65;;;1.00;;
9384;SDS011;4732;49.340;10.886;2023-08-08T09:51:27;2.53;;;0.95;;
9384;SDS011;4732;49.340;10.886;2023-08-08T09:53:53;2.55;;;1.10;;
9384;SDS011;4732;49.340;10.886;2023-08-08T09:56:21;2.15;;;1.00;;
9384;SDS011;4732;49.340;10.886;2023-08-08T09:58:49;4.03;;;1.25;;
9384;SDS011;4732;49.340;10.886;2023-08-08T10:01:15;2.08;;;0.95;;
9384;SDS011;4732;49.340;10.886;2023-08-08T10:03:41;1.40;;;0.82;;
9384;SDS011;4732;49.340;10.886;2023-08-08T10:06:09;1.85;;;0.80;;
9384;SDS011;4732;49.340;10.886;2023-08-08T10:08:35;4.25;;;1.05;;
9384;SDS011;4732;49.340;10.886;2023-08-08T13:04:12;2.20;;;1.10;;
9384;SDS011;4732;49.340;10.886;2023-08-08T13:06:39;1.40;;;1.10;;
9384;SDS011;4732;49.340;10.886;2023-08-08T13:09:05;1.30;;;1.05;;
9384;SDS011;4732;49.340;10.886;2023-08-08T13:11:30;1.70;;;1.27;;
9384;SDS011;4732;49.340;10.886;2023-08-08T13:13:56;1.45;;;1.05;;
9384;SDS011;4732;49.340;10.886;2023-08-08T13:16:21;2.78;;;1.00;;
9384;SDS011;4732;49.340;10.886;2023-08-08T13:18:47;2.03;;;1.30;;
9384;SDS011;4732;49.340;10.886;2023-08-08T13:21:12;2.50;;;1.00;;
9384;SDS011;4732;49.340;10.886;2023-08-08T13:23:38;1.23;;;0.95;;
9384;SDS011;4732;49.340;10.886;2023-08-08T13:26:05;1.52;;;1.13;;
9384;SDS011;4732;49.340;10.886;2023-08-08T13:28:30;2.50;;;1.10;;
9384;SDS011;4732;49.340;10.886;2023-08-08T13:30:56;3.45;;;1.13;;
9384;SDS011;4732;49.340;10.886;2023-08-08T13:33:22;2.08;;;1.10;;
9384;SDS011;4732;49.340;10.886;2023-08-08T13:35:47;2.95;;;1.20;;
9384;SDS011;4732;49.340;10.886;2023-08-08T13:38:13;3.13;;;1.20;;
9384;SDS011;4732;49.340;10.886;2023-08-08T13:40:42;1.98;;;1.25;;
9384;SDS011;4732;49.340;10.886;2023-08-08T13:43:08;2.45;;;0.98;;
9384;SDS011;4732;49.340;10.886;2023-08-08T13:45:34;1.38;;;1.25;;
9384;SDS011;4732;49.340;10.886;2023-08-08T13:48:00;1.42;;;1.00;;
9384;SDS011;4732;49.340;10.886;2023-08-08T13:50:26;2.42;;;1.00;;
9384;SDS011;4732;49.340;10.886;2023-08-08T13:52:51;3.05;;;1.05;;
9384;SDS011;4732;49.340;10.886;2023-08-08T13:55:18;2.80;;;1.17;;
9384;SDS011;4732;49.340;10.886;2023-08-08T13:57:43;2.03;;;1.27;;
9384;SDS011;4732;49.340;10.886;2023-08-08T14:00:10;1.50;;;1.10;;
9384;SDS011;4732;49.340;10.886;2023-08-08T14:02:41;2.95;;;1.25;;
9384;SDS011;4732;49.340;10.886;2023-08-08T14:05:06;3.22;;;1.20;;
9384;SDS011;4732;49.340;10.886;2023-08-08T14:07:32;2.10;;;1.10;;
9384;SDS011;4732;49.340;10.886;2023-08-08T14:09:59;4.07;;;1.08;;
9384;SDS011;4732;49.340;10.886;2023-08-08T14:12:24;2.47;;;1.10;;
9384;SDS011;4732;49.340;10.886;2023-08-08T14:14:50;1.48;;;1.00;;
9384;SDS011;4732;49.340;10.886;2023-08-08T14:17:16;1.40;;;1.17;;
9384;SDS011;4732;49.340;10.886;2023-08-08T14:19:42;1.30;;;0.95;;
9384;SDS011;4732;49.340;10.886;2023-08-08T14:22:08;2.40;;;1.10;;
9384;SDS011;4732;49.340;10.886;2023-08-08T14:24:33;2.40;;;1.05;;
9384;SDS011;4732;49.340;10.886;2023-08-08T14:26:59;1.92;;;1.10;;
9384;SDS011;4732;49.340;10.886;2023-08-08T14:29:24;1.83;;;1.02;;
9384;SDS011;4732;49.340;10.886;2023-08-08T14:31:50;1.70;;;1.08;;
9384;SDS011;4732;49.340;10.886;2023-08-08T14:34:16;1.25;;;0.82;;
9384;SDS011;4732;49.340;10.886;2023-08-08T14:36:41;1.33;;;0.85;;
9384;SDS011;4732;49.340;10.886;2023-08-08T14:39:07;1.13;;;0.88;;
9384;SDS011;4732;49.340;10.886;2023-08-08T14:41:33;2.08;;;0.95;;
9384;SDS011;4732;49.340;10.886;2023-08-08T14:43:58;1.02;;;0.85;;
9384;SDS011;4732;49.340;10.886;2023-08-08T14:46:24;4.70;;;1.30;;
9384;SDS011;4732;49.340;10.886;2023-08-08T14:48:50;1.98;;;1.10;;
9384;SDS011;4732;49.340;10.886;2023-08-08T14:51:15;1.48;;;0.95;;
9384;SDS011;4732;49.340;10.886;2023-08-08T14:53:42;3.90;;;1.17;;
9384;SDS011;4732;49.340;10.886;2023-08-08T14:56:08;3.72;;;1.10;;
9384;SDS011;4732;49.340;10.886;2023-08-08T14:58:34;2.33;;;1.05;;
9384;SDS011;4732;49.340;10.886;2023-08-08T15:01:00;2.65;;;1.30;;
9384;SDS011;4732;49.340;10.886;2023-08-08T15:03:26;2.38;;;0.93;;
9384;SDS011;4732;49.340;10.886;2023-08-08T15:05:51;2.65;;;1.10;;
9384;SDS011;4732;49.340;10.886;2023-08-08T15:08:17;1.63;;;1.27;;
9384;SDS011;4732;49.340;10.886;2023-08-08T15:10:43;1.10;;;0.95;;
9384;SDS011;4732;49.340;10.886;2023-08-08T15:13:09;3.80;;;1.27;;
9384;SDS011;4732;49.340;10.886;2023-08-08T15:15:35;2.35;;;1.05;;
9384;SDS011;4732;49.340;10.886;2023-08-08T15:18:00;1.45;;;1.00;;
9384;SDS011;4732;49.340;10.886;2023-08-08T15:20:26;3.13;;;1.17;;
9384;SDS011;4732;49.340;10.886;2023-08-08T15:22:52;2.75;;;1.23;;
9384;SDS011;4732;49.340;10.886;2023-08-08T15:25:17;1.48;;;1.00;;
9384;SDS011;4732;49.340;10.886;2023-08-08T15:27:43;0.95;;;0.80;;
9384;SDS011;4732;49.340;10.886;2023-08-08T15:30:09;4.07;;;1.10;;
9384;SDS011;4732;49.340;10.886;2023-08-08T15:32:34;1.52;;;1.00;;
9384;SDS011;4732;49.340;10.886;2023-08-08T15:35:00;1.58;;;0.90;;
9384;SDS011;4732;49.340;10.886;2023-08-08T15:37:26;1.42;;;1.10;;
9384;SDS011;4732;49.340;10.886;2023-08-08T15:39:51;2.22;;;1.13;;
9384;SDS011;4732;49.340;10.886;2023-08-08T15:42:17;2.72;;;1.00;;
9384;SDS011;4732;49.340;10.886;2023-08-08T15:44:42;2.08;;;1.20;;
9384;SDS011;4732;49.340;10.886;2023-08-08T15:47:08;0.85;;;0.73;;
9384;SDS011;4732;49.340;10.886;2023-08-08T15:49:34;1.20;;;1.10;;
9384;SDS011;4732;49.340;10.886;2023-08-08T15:51:59;2.35;;;1.00;;
9384;SDS011;4732;49.340;10.886;2023-08-08T15:54:26;1.95;;;1.17;;
9384;SDS011;4732;49.340;10.886;2023-08-08T15:56:51;7.13;;;1.20;;
9384;SDS011;4732;49.340;10.886;2023-08-08T15:59:17;2.47;;;1.23;;
9384;SDS011;4732;49.340;10.886;2023-08-08T16:01:43;2.38;;;0.98;;
9384;SDS011;4732;49.340;10.886;2023-08-08T16:04:08;1.77;;;1.08;;
9384;SDS011;4732;49.340;10.886;2023-08-08T16:06:35;1.05;;;0.95;;
9384;SDS011;4732;49.340;10.886;2023-08-08T16:09:01;2.35;;;1.05;;
9384;SDS011;4732;49.340;10.886;2023-08-08T16:11:27;2.90;;;1.00;;
9384;SDS011;4732;49.340;10.886;2023-08-08T16:13:53;2.15;;;1.10;;
9384;SDS011;4732;49.340;10.886;2023-08-08T16:16:18;2.70;;;1.00;;
9384;SDS011;4732;49.340;10.886;2023-08-08T16:18:44;2.47;;;1.02;;
9384;SDS011;4732;49.340;10.886;2023-08-08T16:21:10;0.98;;;0.90;;
9384;SDS011;4732;49.340;10.886;2023-08-08T16:23:36;1.42;;;1.10;;
9384;SDS011;4732;49.340;10.886;2023-08-08T16:26:01;3.67;;;1.17;;
9384;SDS011;4732;49.340;10.886;2023-08-08T16:28:27;1.48;;;1.20;;
9384;SDS011;4732;49.340;10.886;2023-08-08T16:30:54;4.38;;;1.00;;
9384;SDS011;4732;49.340;10.886;2023-08-08T16:33:20;2.78;;;1.10;;
9384;SDS011;4732;49.340;10.886;2023-08-08T16:35:45;2.42;;;1.08;;
9384;SDS011;4732;49.340;10.886;2023-08-08T16:38:11;1.50;;;1.17;;
9384;SDS011;4732;49.340;10.886;2023-08-08T16:40:37;4.97;;;1.30;;
9384;SDS011;4732;49.340;10.886;2023-08-08T16:43:03;5.45;;;0.90;;
9384;SDS011;4732;49.340;10.886;2023-08-08T16:45:28;2.78;;;1.13;;
9384;SDS011;4732;49.340;10.886;2023-08-08T16:47:54;3.42;;;1.05;;
9384;SDS011;4732;49.340;10.886;2023-08-08T16:50:20;2.85;;;0.93;;
9384;SDS011;4732;49.340;10.886;2023-08-08T16:52:46;1.55;;;1.00;;
9384;SDS011;4732;49.340;10.886;2023-08-08T16:55:12;1.50;;;1.10;;
9384;SDS011;4732;49.340;10.886;2023-08-08T16:57:37;1.48;;;1.02;;
9384;SDS011;4732;49.340;10.886;2023-08-08T17:00:06;2.08;;;1.10;;
9384;SDS011;4732;49.340;10.886;2023-08-08T17:02:35;2.30;;;1.00;;
9384;SDS011;4732;49.340;10.886;2023-08-08T17:05:01;1.27;;;1.00;;
9384;SDS011;4732;49.340;10.886;2023-08-08T17:07:27;1.92;;;1.10;;
9384;SDS011;4732;49.340;10.886;2023-08-08T17:09:54;1.25;;;1.10;;
9384;SDS011;4732;49.340;10.886;2023-08-08T17:12:20;2.17;;;1.20;;
9384;SDS011;4732;49.340;10.886;2023-08-08T17:14:46;3.58;;;1.15;;
9384;SDS011;4732;49.340;10.886;2023-08-08T17:17:12;1.42;;;1.00;;
9384;SDS011;4732;49.340;10.886;2023-08-08T17:19:38;1.92;;;1.08;;
9384;SDS011;4732;49.340;10.886;2023-08-08T17:22:04;3.58;;;1.40;;
9384;SDS011;4732;49.340;10.886;2023-08-08T17:24:30;3.13;;;0.95;;
9384;SDS011;4732;49.340;10.886;2023-08-08T17:26:56;1.58;;;0.90;;
9384;SDS011;4732;49.340;10.886;2023-08-08T17:29:21;1.88;;;1.00;;
9384;SDS011;4732;49.340;10.886;2023-08-08T17:31:47;1.95;;;0.85;;
9384;SDS011;4732;49.340;10.886;2023-08-08T17:34:12;2.83;;;1.02;;
9384;SDS011;4732;49.340;10.886;2023-08-08T17:36:38;1.35;;;0.82;;
9384;SDS011;4732;49.340;10.886;2023-08-08T17:39:03;1.92;;;0.88;;
9384;SDS011;4732;49.340;10.886;2023-08-08T17:41:29;1.48;;;0.90;;
9384;SDS011;4732;49.340;10.886;2023-08-08T17:43:58;1.00;;;0.90;;
9384;SDS011;4732;49.340;10.886;2023-08-08T17:46:26;2.90;;;1.00;;
9384;SDS011;4732;49.340;10.886;2023-08-08T17:48:55;1.27;;;0.70;;
9384;SDS011;4732;49.340;10.886;2023-08-08T17:51:26;2.85;;;0.85;;
9384;SDS011;4732;49.340;10.886;2023-08-08T17:53:53;1.05;;;0.93;;
9384;SDS011;4732;49.340;10.886;2023-08-08T17:56:24;1.38;;;0.80;;
9384;SDS011;4732;49.340;10.886;2023-08-08T17:58:50;2.53;;;1.00;;
9384;SDS011;4732;49.340;10.886;2023-08-08T18:01:16;2.05;;;0.70;;
9384;SDS011;4732;49.340;10.886;2023-08-08T18:03:43;1.10;;;0.85;;
9384;SDS011;4732;49.340;10.886;2023-08-08T18:06:13;2.88;;;0.90;;
9384;SDS011;4732;49.340;10.886;2023-08-08T18:08:40;2.38;;;0.80;;
9384;SDS011;4732;49.340;10.886;2023-08-08T18:11:06;1.83;;;0.93;;
9384;SDS011;4732;49.340;10.886;2023-08-08T18:13:34;1.73;;;0.82;;
9384;SDS011;4732;49.340;10.886;2023-08-08T18:15:59;2.72;;;0.85;;
9384;SDS011;4732;49.340;10.886;2023-08-08T18:18:25;1.65;;;0.90;;
9384;SDS011;4732;49.340;10.886;2023-08-08T18:20:52;2.10;;;1.02;;
9384;SDS011;4732;49.340;10.886;2023-08-08T18:23:18;3.72;;;0.90;;
9384;SDS011;4732;49.340;10.886;2023-08-08T18:25:44;2.38;;;0.90;;
9384;SDS011;4732;49.340;10.886;2023-08-08T18:28:10;0.93;;;0.63;;
9384;SDS011;4732;49.340;10.886;2023-08-08T18:30:36;2.35;;;0.80;;
9384;SDS011;4732;49.340;10.886;2023-08-08T18:33:02;1.42;;;1.00;;
9384;SDS011;4732;49.340;10.886;2023-08-08T18:35:28;2.15;;;1.00;;
9384;SDS011;4732;49.340;10.886;2023-08-08T18:37:53;1.55;;;0.80;;
9384;SDS011;4732;49.340;10.886;2023-08-08T18:40:19;0.98;;;0.70;;
9384;SDS011;4732;49.340;10.886;2023-08-08T18:42:46;1.65;;;0.68;;
9384;SDS011;4732;49.340;10.886;2023-08-08T18:45:12;1.42;;;1.02;;
9384;SDS011;4732;49.340;10.886;2023-08-08T18:47:39;1.23;;;0.90;;
9384;SDS011;4732;49.340;10.886;2023-08-08T18:50:05;1.20;;;0.80;;
9384;SDS011;4732;49.340;10.886;2023-08-08T18:52:31;4.35;;;1.20;;
9384;SDS011;4732;49.340;10.886;2023-08-08T18:54:57;1.40;;;0.90;;
9384;SDS011;4732;49.340;10.886;2023-08-08T18:57:23;1.88;;;0.88;;
9384;SDS011;4732;49.340;10.886;2023-08-08T18:59:48;2.25;;;0.93;;
9384;SDS011;4732;49.340;10.886;2023-08-08T19:02:15;1.63;;;0.80;;
9384;SDS011;4732;49.340;10.886;2023-08-08T19:04:41;2.28;;;0.90;;
9384;SDS011;4732;49.340;10.886;2023-08-08T19:07:09;2.53;;;0.73;;
9384;SDS011;4732;49.340;10.886;2023-08-08T19:09:34;1.55;;;1.05;;
9384;SDS011;4732;49.340;10.886;2023-08-08T19:12:00;1.05;;;0.82;;
9384;SDS011;4732;49.340;10.886;2023-08-08T19:14:26;1.08;;;0.70;;
9384;SDS011;4732;49.340;10.886;2023-08-08T19:16:52;1.17;;;0.80;;
9384;SDS011;4732;49.340;10.886;2023-08-08T19:19:17;1.30;;;0.88;;
9384;SDS011;4732;49.340;10.886;2023-08-08T19:21:43;3.03;;;1.10;;
9384;SDS011;4732;49.340;10.886;2023-08-08T19:24:08;2.92;;;1.15;;
9384;SDS011;4732;49.340;10.886;2023-08-08T19:26:34;2.15;;;1.10;;
9384;SDS011;4732;49.340;10.886;2023-08-08T19:29:00;2.97;;;0.88;;
9384;SDS011;4732;49.340;10.886;2023-08-08T19:31:25;1.85;;;1.30;;
9384;SDS011;4732;49.340;10.886;2023-08-08T19:33:51;1.23;;;1.10;;
9384;SDS011;4732;49.340;10.886;2023-08-08T19:36:17;1.55;;;1.00;;
9384;SDS011;4732;49.340;10.886;2023-08-08T19:38:42;1.17;;;0.98;;
9384;SDS011;4732;49.340;10.886;2023-08-08T19:41:08;2.15;;;1.00;;
9384;SDS011;4732;49.340;10.886;2023-08-08T19:43:33;1.73;;;1.20;;
9384;SDS011;4732;49.340;10.886;2023-08-08T19:45:59;1.42;;;0.70;;
9384;SDS011;4732;49.340;10.886;2023-08-08T19:48:25;2.78;;;1.17;;
9384;SDS011;4732;49.340;10.886;2023-08-08T19:50:53;2.10;;;1.10;;
9384;SDS011;4732;49.340;10.886;2023-08-08T19:53:19;1.25;;;0.70;;
9384;SDS011;4732;49.340;10.886;2023-08-08T19:55:45;1.80;;;1.00;;
9384;SDS011;4732;49.340;10.886;2023-08-08T19:58:12;3.42;;;1.00;;
9384;SDS011;4732;49.340;10.886;2023-08-08T20:00:37;2.85;;;0.80;;
9384;SDS011;4732;49.340;10.886;2023-08-08T20:03:03;1.67;;;1.05;;
9384;SDS011;4732;49.340;10.886;2023-08-08T20:05:28;1.42;;;0.90;;
9384;SDS011;4732;49.340;10.886;2023-08-08T20:07:54;1.30;;;1.00;;
9384;SDS011;4732;49.340;10.886;2023-08-08T20:10:20;2.85;;;0.90;;
9384;SDS011;4732;49.340;10.886;2023-08-08T20:12:45;2.50;;;1.00;;
9384;SDS011;4732;49.340;10.886;2023-08-08T20:15:11;4.22;;;1.23;;
9384;SDS011;4732;49.340;10.886;2023-08-08T20:17:37;1.60;;;1.00;;
9384;SDS011;4732;49.340;10.886;2023-08-08T20:20:04;2.47;;;1.10;;
9384;SDS011;4732;49.340;10.886;2023-08-08T20:22:30;4.28;;;1.45;;
9384;SDS011;4732;49.340;10.886;2023-08-08T20:24:55;4.50;;;1.30;;
9384;SDS011;4732;49.340;10.886;2023-08-08T20:27:21;3.95;;;0.98;;
9384;SDS011;4732;49.340;10.886;2023-08-08T20:29:47;1.83;;;1.08;;
9384;SDS011;4732;49.340;10.886;2023-08-08T20:32:12;3.67;;;1.20;;
9384;SDS011;4732;49.340;10.886;2023-08-08T20:34:38;1.95;;;1.00;;
9384;SDS011;4732;49.340;10.886;2023-08-08T20:37:03;1.70;;;1.10;;
9384;SDS011;4732;49.340;10.886;2023-08-08T20:39:31;1.90;;;1.10;;
9384;SDS011;4732;49.340;10.886;2023-08-08T20:41:58;1.90;;;0.93;;
9384;SDS011;4732;49.340;10.886;2023-08-08T20:44:24;2.15;;;1.17;;
9384;SDS011;4732;49.340;10.886;2023-08-08T20:46:50;3.55;;;1.05;;
9384;SDS011;4732;49.340;10.886;2023-08-08T20:49:15;1.90;;;0.98;;
9384;SDS011;4732;49.340;10.886;2023-08-08T20:51:41;1.40;;;0.90;;
9384;SDS011;4732;49.340;10.886;2023-08-08T20:54:07;1.65;;;1.30;;
9384;SDS011;4732;49.340;10.886;2023-08-08T20:56:33;2.13;;;0.90;;
9384;SDS011;4732;49.340;10.886;2023-08-08T20:58:59;1.88;;;1.10;;
9384;SDS011;4732;49.340;10.886;2023-08-08T21:01:24;1.85;;;1.10;;
9384;SDS011;4732;49.340;10.886;2023-08-08T21:03:50;2.15;;;1.23;;
9384;SDS011;4732;49.340;10.886;2023-08-08T21:06:15;2.70;;;1.25;;
9384;SDS011;4732;49.340;10.886;2023-08-08T21:08:41;1.48;;;0.95;;
9384;SDS011;4732;49.340;10.886;2023-08-08T21:11:06;4.40;;;1.20;;
9384;SDS011;4732;49.340;10.886;2023-08-08T21:13:32;1.58;;;1.20;;
9384;SDS011;4732;49.340;10.886;2023-08-08T21:15:57;2.85;;;1.13;;
9384;SDS011;4732;49.340;10.886;2023-08-08T21:18:23;3.88;;;1.30;;
9384;SDS011;4732;49.340;10.886;2023-08-08T21:20:48;3.58;;;1.13;;
9384;SDS011;4732;49.340;10.886;2023-08-08T21:23:14;1.30;;;0.90;;
9384;SDS011;4732;49.340;10.886;2023-08-08T21:25:40;3.22;;;1.23;;
9384;SDS011;4732;49.340;10.886;2023-08-08T21:28:05;2.80;;;1.13;;
9384;SDS011;4732;49.340;10.886;2023-08-08T21:30:31;1.50;;;1.05;;
9384;SDS011;4732;49.340;10.886;2023-08-08T21:32:56;4.18;;;1.20;;
9384;SDS011;4732;49.340;10.886;2023-08-08T21:35:22;3.25;;;1.33;;
9384;SDS011;4732;49.340;10.886;2023-08-08T21:37:47;2.70;;;1.05;;
9384;SDS011;4732;49.340;10.886;2023-08-08T21:40:13;2.70;;;1.10;;
9384;SDS011;4732;49.340;10.886;2023-08-08T21:42:39;1.70;;;1.20;;
9384;SDS011;4732;49.340;10.886;2023-08-08T21:45:05;2.97;;;1.30;;
9384;SDS011;4732;49.340;10.886;2023-08-08T21:47:30;2.28;;;1.13;;
9384;SDS011;4732;49.340;10.886;2023-08-08T21:49:56;2.72;;;1.23;;
9384;SDS011;4732;49.340;10.886;2023-08-08T21:52:22;2.25;;;1.17;;
9384;SDS011;4732;49.340;10.886;2023-08-08T21:54:48;2.63;;;1.05;;
9384;SDS011;4732;49.340;10.886;2023-08-08T21:57:14;2.17;;;1.05;;
9384;SDS011;4732;49.340;10.886;2023-08-08T21:59:39;2.17;;;1.23;;
9384;SDS011;4732;49.340;10.886;2023-08-08T22:02:05;1.45;;;1.13;;
9384;SDS011;4732;49.340;10.886;2023-08-08T22:04:30;3.83;;;1.17;;
9384;SDS011;4732;49.340;10.886;2023-08-08T22:06:56;2.53;;;1.08;;
9384;SDS011;4732;49.340;10.886;2023-08-08T22:09:22;2.78;;;1.10;;
9384;SDS011;4732;49.340;10.886;2023-08-08T22:11:48;3.35;;;1.20;;
9384;SDS011;4732;49.340;10.886;2023-08-08T22:14:14;4.13;;;1.30;;
